Temp: 14.7°C   Baro: 995.5mb
  Wind: 4.9mph   Dir: SSW (210°)
  Rain: 0.2mm (0.0mm/hr)
  Solar: 77W/m2  Hum: 88%
 
Bath Spa Weather Station Historical Data
Daily Summary for September 29, 2020 Units:  English    Metric   Both
Daily Weekly Monthly Yearly Custom
  High: Low: Average:
Temperature: 65.8 °F 49.8 °F 57.3 °F
Dew Point: 58.8 °F 46.9 °F 52.8 °F
Humidity: 95% 55.2% 83%
Wind Speed: 7.3mph 0mph 1.7mph
Wind Gust: 13mph - -
Wind- - WNW
Pressure: 30.03 in 29.94 in -
Precipitation: 0.02 in    
Historical Graphs
 
 
Tabular Data for September 29, 2020
Time Temperature Dew Point Pressure Wind Wind Speed Wind Gust Humidity Rainfall Rate (Hourly) solar
00:04 59.4 °F 58.5 °F 29.94 in WSW 0.8 mph 3 mph 94% 0.01 in 0 W/m2
00:09 59.4 °F 58.6 °F 29.94 in WSW 2 mph 4 mph 94.4% 0.01 in 0 W/m2
00:14 59.4 °F 58.7 °F 29.94 in WSW 2.4 mph 6 mph 94.8% 0.01 in 0 W/m2
00:19 59.4 °F 58.8 °F 29.94 in West 2.1 mph 6 mph 95% 0.01 in 0 W/m2
00:24 59.4 °F 58.8 °F 29.94 in West 2.5 mph 5 mph 95% 0.01 in 0 W/m2
00:29 59.4 °F 58.8 °F 29.94 in West 2.6 mph 4 mph 95% 0.01 in 0 W/m2
00:34 59.4 °F 58.8 °F 29.94 in West 2.7 mph 6 mph 95% 0.01 in 0 W/m2
00:39 59.4 °F 58.8 °F 29.94 in WNW 2.1 mph 4 mph 95% 0.01 in 0 W/m2
00:44 59.4 °F 58.8 °F 29.94 in WNW 2.5 mph 5 mph 95% 0.01 in 0 W/m2
00:49 59.2 °F 58.6 °F 29.94 in WNW 3.9 mph 9 mph 95% 0.02 in 0 W/m2
00:54 58.9 °F 58.4 °F 29.94 in NW 3.4 mph 8 mph 95% 0.02 in 0 W/m2
00:59 58.6 °F 58.1 °F 29.94 in WNW 0.8 mph 5 mph 95% 0.02 in 0 W/m2
01:04 58.6 °F 58.1 °F 29.94 in NW 2.6 mph 7 mph 95% 0.02 in 0 W/m2
01:09 58.6 °F 58 °F 29.94 in WNW 1.7 mph 6 mph 95% 0.02 in 0 W/m2
01:14 58.5 °F 57.9 °F 29.94 in NW 2.5 mph 7 mph 95% 0.02 in 0 W/m2
01:19 58.1 °F 57.6 °F 29.94 in NW 4.5 mph 11 mph 95% 0.02 in 0 W/m2
01:24 57.8 °F 57.3 °F 29.94 in NW 3.7 mph 7 mph 95% 0.02 in 0 W/m2
01:29 57.7 °F 57.2 °F 29.94 in NW 3 mph 9 mph 95% 0.02 in 0 W/m2
01:34 57.7 °F 57.1 °F 29.95 in NW 3.8 mph 9 mph 95% 0.02 in 0 W/m2
01:39 57.6 °F 57 °F 29.95 in NW 2.3 mph 6 mph 95% 0.01 in 0 W/m2
01:44 57.6 °F 57 °F 29.95 in NNW 1.2 mph 6 mph 95% 0.01 in 0 W/m2
01:49 57.6 °F 57 °F 29.95 in NW 1.7 mph 6 mph 95% 0.00 in 0 W/m2
01:54 57.4 °F 56.8 °F 29.95 in NNW 2.8 mph 6 mph 95% 0.00 in 0 W/m2
01:59 57.3 °F 56.7 °F 29.95 in WNW 1.9 mph 6 mph 95% 0.01 in 0 W/m2
02:04 57.1 °F 56.6 °F 29.95 in NW 2 mph 5 mph 95% 0.01 in 0 W/m2
02:09 56.9 °F 56.4 °F 29.96 in NNW 4.1 mph 9 mph 95% 0.01 in 0 W/m2
02:14 56.8 °F 56.3 °F 29.96 in NNW 3.9 mph 9 mph 95% 0.01 in 0 W/m2
02:19 56.8 °F 56.3 °F 29.96 in Calm   3 mph 95% 0.01 in 0 W/m2
02:24 56.8 °F 56.3 °F 29.96 in North 1 mph 5 mph 95% 0.01 in 0 W/m2
02:29 56.8 °F 56.2 °F 29.96 in Calm   3 mph 95% 0.01 in 0 W/m2
02:34 56.7 °F 56.1 °F 29.96 in NW 1.3 mph 5 mph 95% 0.01 in 0 W/m2
02:39 56.5 °F 55.9 °F 29.96 in NW 2.2 mph 5 mph 95% 0.01 in 0 W/m2
02:44 56.5 °F 55.9 °F 29.96 in NW 1.7 mph 5 mph 95% 0.01 in 0 W/m2
02:49 56.5 °F 55.9 °F 29.96 in WNW 0.2 mph 2 mph 95% 0.01 in 0 W/m2
02:54 56.5 °F 55.9 °F 29.96 in WNW 0.2 mph 2 mph 95% 0.01 in 0 W/m2
02:59 56.5 °F 55.9 °F 29.96 in WNW 0.2 mph 1 mph 95% 0.01 in 0 W/m2
03:04 56.3 °F 55.8 °F 29.96 in WNW 0.2 mph 2 mph 95% 0.00 in 0 W/m2
03:09 56.1 °F 55.6 °F 29.96 in WNW 0.2 mph 2 mph 95% 0.00 in 0 W/m2
03:14 56.2 °F 55.7 °F 29.96 in WNW 0.8 mph 2 mph 95% 0.00 in 0 W/m2
03:19 56.3 °F 55.7 °F 29.96 in WNW 0.6 mph 2 mph 94.8% 0.00 in 0 W/m2
03:24 56.1 °F 55.6 °F 29.96 in WNW 0.5 mph 3 mph 94.8% 0.00 in 0 W/m2
03:29 56.1 °F 55.4 °F 29.96 in WNW 1 mph 4 mph 94.6% 0.00 in 0 W/m2
03:34 56.1 °F 55.4 °F 29.96 in WNW 1.2 mph 4 mph 94.6% 0.00 in 0 W/m2
03:39 56.1 °F 55.2 °F 29.96 in West 2.7 mph 5 mph 94% 0.00 in 0 W/m2
03:44 55.9 °F 55.3 °F 29.96 in West 2.6 mph 4 mph 94.4% 0.00 in 0 W/m2
03:49 55.9 °F 55.2 °F 29.96 in West 0.8 mph 4 mph 94.2% 0.00 in 0 W/m2
03:54 55.9 °F 55.3 °F 29.96 in West 1.6 mph 3 mph 94.6% 0.00 in 0 W/m2
03:59 55.9 °F 55.4 °F 29.96 in West 1.8 mph 4 mph 95% 0.00 in 0 W/m2
04:04 55.9 °F 55.4 °F 29.96 in West 0.9 mph 4 mph 95% 0.00 in 0 W/m2
04:09 55.9 °F 55.3 °F 29.96 in West 2 mph 4 mph 95% 0.00 in 0 W/m2
04:14 55.8 °F 55.2 °F 29.96 in West 1.3 mph 4 mph 95% 0.00 in 0 W/m2
04:19 55.8 °F 55.2 °F 29.96 in West 0.8 mph 3 mph 94.8% 0.00 in 0 W/m2
04:24 55.8 °F 55.2 °F 29.96 in Calm   2 mph 95% 0.00 in 0 W/m2
04:29 55.8 °F 55.2 °F 29.96 in West 1.2 mph 3 mph 95% 0.00 in 0 W/m2
04:34 55.8 °F 55.2 °F 29.96 in West 1.3 mph 3 mph 95% 0.00 in 0 W/m2
04:39 55.8 °F 55.2 °F 29.96 in West 0.4 mph 3 mph 95% 0.00 in 0 W/m2
04:44 55.8 °F 55.2 °F 29.97 in West 0.8 mph 3 mph 95% 0.00 in 0 W/m2
04:49 55.8 °F 55.2 °F 29.97 in West 0.4 mph 3 mph 95% 0.00 in 0 W/m2
04:54 55.7 °F 55.1 °F 29.97 in Calm   1 mph 95% 0.00 in 0 W/m2
04:59 55.6 °F 55 °F 29.97 in Calm   2 mph 95% 0.00 in 0 W/m2
05:04 55.6 °F 55 °F 29.97 in Calm     95% 0.00 in 0 W/m2
05:09 55.6 °F 55 °F 29.97 in Calm     94.5% 0.00 in 0 W/m2
05:14 55.6 °F 55 °F 29.97 in Calm     94.8% 0.00 in 0 W/m2
05:19 55.6 °F 55 °F 29.97 in West 0.2 mph 2 mph 94.6% 0.00 in 0 W/m2
05:24 55.6 °F 54.9 °F 29.97 in Calm   1 mph 94% 0.00 in 0 W/m2
05:29 55.5 °F 54.9 °F 29.97 in Calm   1 mph 94.4% 0.00 in 0 W/m2
05:34 55.4 °F 54.9 °F 29.97 in West 0.2 mph 1 mph 94.8% 0.00 in 0 W/m2
05:39 55.2 °F 54.7 °F 29.97 in Calm     94.8% 0.00 in 0 W/m2
05:44 55.3 °F 54.8 °F 29.97 in Calm   2 mph 95% 0.00 in 0 W/m2
05:49 55.2 °F 54.7 °F 29.97 in Calm   1 mph 95% 0.00 in 0 W/m2
05:54 55.2 °F 54.7 °F 29.97 in Calm   2 mph 95% 0.00 in 0 W/m2
05:59 55.2 °F 54.7 °F 29.97 in West 0.2 mph 2 mph 95% 0.00 in 0 W/m2
06:04 55 °F 54.5 °F 29.98 in Calm     95% 0.00 in 0 W/m2
06:09 55 °F 54.5 °F 29.98 in Calm   1 mph 95% 0.00 in 0 W/m2
06:14 54.9 °F 54.3 °F 29.98 in Calm   1 mph 95% 0.00 in 0 W/m2
06:19 54.9 °F 54.3 °F 29.98 in Calm     95% 0.00 in 0 W/m2
06:24 54.9 °F 54.3 °F 29.98 in Calm   1 mph 95% 0.00 in 0 W/m2
06:29 54.7 °F 54.1 °F 29.98 in West 0.4 mph 2 mph 95% 0.00 in 0 W/m2
06:34 54.7 °F 54.1 °F 29.98 in West 0.4 mph 2 mph 95% 0.00 in 0 W/m2
06:39 54.6 °F 54.1 °F 29.98 in Calm     95% 0.00 in 0 W/m2
06:44 54.5 °F 54 °F 29.98 in Calm     95% 0.00 in 0 W/m2
06:49 54.4 °F 53.9 °F 29.98 in Calm   1 mph 95% 0.00 in 0 W/m2
06:54 54.3 °F 53.8 °F 29.98 in Calm     95% 0.00 in 0 W/m2
06:59 54.2 °F 53.7 °F 29.98 in Calm     95% 0.00 in 0 W/m2
07:04 54 °F 53.4 °F 29.99 in Calm     95% 0.00 in 0 W/m2
07:09 53.8 °F 53.2 °F 29.99 in Calm     95% 0.00 in 0 W/m2
07:14 53.7 °F 53.2 °F 29.99 in Calm     95% 0.00 in 7 W/m2
07:18 53.6 °F 53.1 °F 29.99 in Calm     95% 0.00 in 9 W/m2
07:24 53.5 °F 53 °F 29.99 in Calm     95% 0.00 in 12 W/m2
07:29 53.4 °F 52.9 °F 29.99 in Calm     95% 0.00 in 18 W/m2
07:34 53.4 °F 52.9 °F 29.99 in Calm     95% 0.00 in 23 W/m2
07:39 53.2 °F 52.7 °F 30.00 in Calm     95% 0.00 in 26 W/m2
07:44 53.2 °F 52.7 °F 30.00 in Calm     95% 0.00 in 32 W/m2
07:49 53.3 °F 52.8 °F 30.00 in Calm   1 mph 95% 0.00 in 35 W/m2
07:54 53.4 °F 52.9 °F 30.00 in Calm     95% 0.00 in 37 W/m2
07:59 53.4 °F 52.9 °F 30.00 in Calm     95% 0.00 in 37 W/m2
08:04 53.4 °F 52.9 °F 30.00 in Calm     95% 0.00 in 40 W/m2
08:09 53.4 °F 52.9 °F 30.01 in Calm     95% 0.00 in 53 W/m2
08:14 53.4 °F 52.9 °F 30.01 in West 0.2 mph 2 mph 95% 0.00 in 47 W/m2
08:19 53.2 °F 52.7 °F 30.01 in Calm     95% 0.00 in 46 W/m2
08:24 53.2 °F 52.6 °F 30.01 in Calm     95% 0.00 in 40 W/m2
08:29 53.1 °F 52.5 °F 30.01 in West 0.6 mph 2 mph 95% 0.00 in 42 W/m2
08:34 53.1 °F 52.5 °F 30.01 in West 0.5 mph 2 mph 95% 0.00 in 49 W/m2
08:39 53.1 °F 52.5 °F 30.01 in West 0.2 mph 1 mph 95% 0.00 in 56 W/m2
08:44 53.1 °F 52.5 °F 30.01 in Calm   1 mph 95% 0.00 in 67 W/m2
08:49 53.2 °F 52.6 °F 30.01 in Calm     95% 0.00 in 137 W/m2
08:54 53.3 °F 52.8 °F 30.01 in West 0.4 mph 2 mph 95% 0.00 in 174 W/m2
08:59 53.2 °F 52.7 °F 30.01 in WNW 1.6 mph 6 mph 95% 0.00 in 97 W/m2
09:04 53.3 °F 52.8 °F 30.01 in NW 1.8 mph 6 mph 95% 0.00 in 209 W/m2
09:09 53.7 °F 53.2 °F 30.01 in NW 2.8 mph 6 mph 95% 0.00 in 167 W/m2
09:14 53.9 °F 53.3 °F 30.02 in NW 2 mph 5 mph 95% 0.00 in 227 W/m2
09:19 54.1 °F 53.6 °F 30.02 in NNW 2.5 mph 5 mph 95% 0.00 in 250 W/m2
09:23 54.2 °F 53.5 °F 30.02 in NW 0.7 mph 7 mph 94% 0.00 in 260 W/m2
09:29 54.3 °F 53.6 °F 30.02 in NW 2.4 mph 7 mph 94% 0.00 in 214 W/m2
09:34 54.3 °F 53.3 °F 30.02 in NW 3.1 mph 6 mph 93.2% 0.00 in 104 W/m2
09:39 54.6 °F 53.4 °F 30.02 in NNW 1.4 mph 5 mph 92.6% 0.00 in 287 W/m2
09:44 55.2 °F 53.8 °F 30.02 in NNW 3.4 mph 6 mph 91.6% 0.00 in 294 W/m2
09:49 55.2 °F 53.4 °F 30.02 in NNW 2.8 mph 7 mph 90.4% 0.00 in 306 W/m2
09:54 55.7 °F 53.4 °F 30.02 in NW 2.1 mph 5 mph 89% 0.00 in 323 W/m2
09:59 55.9 °F 53.2 °F 30.02 in NNW 1.7 mph 5 mph 88% 0.00 in 336 W/m2
10:04 56.2 °F 53.3 °F 30.02 in NNW 1.9 mph 6 mph 87% 0.00 in 353 W/m2
10:09 56.3 °F 53.2 °F 30.02 in NW 3.8 mph 7 mph 86.4% 0.00 in 371 W/m2
10:14 56.5 °F 53.2 °F 30.02 in NW 2.1 mph 6 mph 86% 0.00 in 378 W/m2
10:19 56.6 °F 53.2 °F 30.02 in NNW 1.8 mph 6 mph 85.6% 0.00 in 350 W/m2
10:24 56.7 °F 53.2 °F 30.02 in NW 2.8 mph 5 mph 85.4% 0.00 in 253 W/m2
10:29 56.3 °F 52.8 °F 30.02 in NW 3.1 mph 6 mph 85.4% 0.00 in 144 W/m2
10:34 56 °F 52.5 °F 30.03 in NW 4.4 mph 7 mph 85.4% 0.00 in 355 W/m2
10:39 56.1 °F 52.8 °F 30.03 in NW 3.2 mph 7 mph 85.8% 0.00 in 457 W/m2
10:44 56.8 °F 53.3 °F 30.03 in NNW 3.5 mph 6 mph 85.3% 0.00 in 454 W/m2
10:49 57.3 °F 53.4 °F 30.03 in North 1.7 mph 6 mph 84.2% 0.00 in 476 W/m2
10:54 57.6 °F 53.2 °F 30.03 in North 3 mph 7 mph 83% 0.00 in 522 W/m2
10:59 57.9 °F 53.6 °F 30.02 in NW 1 mph 6 mph 83% 0.00 in 524 W/m2
11:04 58.7 °F 54 °F 30.02 in NW 2 mph 5 mph 82% 0.00 in 564 W/m2
11:09 58.6 °F 53.9 °F 30.02 in NNW 2.4 mph 5 mph 82% 0.00 in 520 W/m2
11:14 58.1 °F 53.3 °F 30.02 in WNW 1.2 mph 5 mph 81.4% 0.00 in 496 W/m2
11:19 58.5 °F 53.8 °F 30.02 in WNW 1.8 mph 4 mph 81.4% 0.00 in 503 W/m2
11:24 59.3 °F 54.3 °F 30.02 in West 2.1 mph 5 mph 81% 0.00 in 506 W/m2
11:29 59.7 °F 54.4 °F 30.02 in West 1.7 mph 4 mph 79.8% 0.00 in 517 W/m2
11:34 59.7 °F 53.8 °F 30.02 in WNW 1.2 mph 5 mph 78% 0.00 in 527 W/m2
11:39 59.7 °F 53.9 °F 30.02 in NW 0.8 mph 5 mph 78.6% 0.00 in 520 W/m2
11:44 60.7 °F 54.5 °F 30.02 in NW 0.6 mph 3 mph 77.2% 0.00 in 526 W/m2
11:49 60.8 °F 54.5 °F 30.02 in WNW 2.2 mph 6 mph 76.8% 0.00 in 533 W/m2
11:54 60.8 °F 54.6 °F 30.02 in West 3.2 mph 5 mph 77% 0.00 in 536 W/m2
11:59 61 °F 54.3 °F 30.02 in West 2 mph 5 mph 76% 0.00 in 543 W/m2
12:04 61.3 °F 54.3 °F 30.02 in WSW 2.9 mph 5 mph 75.6% 0.00 in 538 W/m2
12:09 61.3 °F 54.2 °F 30.02 in West 4 mph 6 mph 75.2% 0.00 in 545 W/m2
12:14 60.8 °F 53.9 °F 30.02 in West 2.1 mph 6 mph 75.4% 0.00 in 550 W/m2
12:19 61.3 °F 54.1 °F 30.02 in WNW 3.6 mph 7 mph 75.2% 0.00 in 573 W/m2
12:24 61 °F 54 °F 30.02 in West 4.9 mph 8 mph 75.4% 0.00 in 573 W/m2
12:29 61.3 °F 53.9 °F 30.02 in West 4.2 mph 7 mph 74.4% 0.00 in 564 W/m2
12:34 61.2 °F 53.4 °F 30.02 in WNW 3.2 mph 7 mph 73.4% 0.00 in 561 W/m2
12:39 61.7 °F 53.6 °F 30.02 in West 2.4 mph 7 mph 72.6% 0.00 in 570 W/m2
12:44 61.7 °F 53.2 °F 30.02 in NW 4.1 mph 9 mph 71.6% 0.00 in 584 W/m2
12:49 62.1 °F 53.2 °F 30.02 in WNW 2.8 mph 6 mph 70.4% 0.00 in 585 W/m2
12:54 63 °F 53.3 °F 30.02 in West 2.8 mph 7 mph 68.4% 0.00 in 649 W/m2
12:58 62.6 °F 52.4 °F 30.02 in NW 4.2 mph 6 mph 67.3% 0.00 in 712 W/m2
13:04 62.5 °F 52.6 °F 30.01 in NW 1 mph 7 mph 67.8% 0.00 in 747 W/m2
13:09 64 °F 53.1 °F 30.01 in WNW 2.5 mph 6 mph 65.8% 0.00 in 330 W/m2
13:14 63.7 °F 54.1 °F 30.01 in WNW 3.3 mph 6 mph 68.8% 0.00 in 408 W/m2
13:19 62.9 °F 53.4 °F 30.01 in NNW 4.7 mph 7 mph 68.8% 0.00 in 323 W/m2
13:24 61.9 °F 52.8 °F 30.01 in NNW 3.3 mph 8 mph 69.6% 0.00 in 207 W/m2
13:29 61.3 °F 52.5 °F 30.01 in North 3.9 mph 9 mph 70.6% 0.00 in 262 W/m2
13:34 61.4 °F 52.8 °F 30.01 in NW 1.6 mph 5 mph 71% 0.00 in 160 W/m2
13:39 61.4 °F 52.9 °F 30.01 in WNW 1.7 mph 5 mph 71.4% 0.00 in 114 W/m2
13:44 61.6 °F 53.3 °F 30.01 in West 1 mph 3 mph 72% 0.00 in 262 W/m2
13:49 62 °F 53.6 °F 30.01 in West 0.8 mph 2 mph 71.6% 0.00 in 262 W/m2
13:54 62.6 °F 53.6 °F 30.00 in SSW 2 mph 4 mph 70.2% 0.00 in 622 W/m2
13:59 63 °F 53.6 °F 30.00 in SSW 1.3 mph 4 mph 69.2% 0.00 in 496 W/m2
14:04 63.5 °F 53.5 °F 30.00 in SSW 0.8 mph 3 mph 67.6% 0.00 in 587 W/m2
14:09 65.8 °F 55.1 °F 30.00 in SSW 2.1 mph 6 mph 66.4% 0.00 in 605 W/m2
14:14 64.9 °F 53.7 °F 30.00 in SW 1.6 mph 6 mph 65.2% 0.00 in 615 W/m2
14:19 65.1 °F 53.9 °F 30.00 in West 2.5 mph 6 mph 64.8% 0.00 in 621 W/m2
14:24 64.9 °F 53 °F 29.99 in West 2.6 mph 6 mph 63.4% 0.00 in 642 W/m2
14:29 64.7 °F 52.7 °F 29.99 in West 4.2 mph 7 mph 63% 0.00 in 666 W/m2
14:34 65.5 °F 52.4 °F 29.99 in SW 4.1 mph 8 mph 60.8% 0.00 in 311 W/m2
14:44 64.4 °F 51.1 °F 29.99 in WSW 5.5 mph 9 mph 60% 0.00 in 684 W/m2
14:49 63.9 °F 51.5 °F 29.99 in WSW 4.4 mph 9 mph 62.2% 0.00 in 684 W/m2
14:54 63.9 °F 52.5 °F 29.99 in West 3.8 mph 8 mph 64.4% 0.00 in 577 W/m2
14:59 64.4 °F 52.1 °F 29.99 in SW 1.2 mph 4 mph 62.2% 0.00 in 550 W/m2
15:04 64.4 °F 52.2 °F 29.99 in West 3.6 mph 6 mph 62.6% 0.00 in 283 W/m2
15:09 64.8 °F 52 °F 29.99 in West 5.8 mph 13 mph 61.4% 0.00 in 336 W/m2
15:14 64 °F 51.2 °F 29.99 in WSW 6.6 mph 13 mph 61.2% 0.00 in 299 W/m2
15:19 63.7 °F 51.5 °F 29.98 in West 4.4 mph 9 mph 62.6% 0.00 in 257 W/m2
15:24 63.4 °F 51.6 °F 29.98 in WNW 4.9 mph 9 mph 63.2% 0.00 in 265 W/m2
15:29 63.2 °F 51.5 °F 29.98 in West 4.8 mph 9 mph 63.4% 0.00 in 251 W/m2
15:34 63.3 °F 51 °F 29.98 in WNW 4.9 mph 9 mph 62.2% 0.00 in 232 W/m2
15:39 63.1 °F 51.3 °F 29.98 in NW 5 mph 9 mph 63.2% 0.00 in 297 W/m2
15:44 63.3 °F 52 °F 29.98 in West 3.3 mph 6 mph 64.4% 0.00 in 315 W/m2
15:49 64 °F 51.5 °F 29.98 in West 5.4 mph 8 mph 61.8% 0.00 in 445 W/m2
15:54 64.1 °F 49.9 °F 29.98 in West 4.4 mph 11 mph 58% 0.00 in 411 W/m2
15:59 64.4 °F 49.5 °F 29.98 in West 4.7 mph 9 mph 56.5% 0.00 in 396 W/m2
16:04 64.3 °F 48.8 °F 29.98 in WSW 4.3 mph 10 mph 55.2% 0.00 in 381 W/m2
16:09 64.5 °F 49.2 °F 29.98 in West 4 mph 8 mph 55.8% 0.00 in 383 W/m2
16:14 64 °F 48.9 °F 29.98 in WNW 5.3 mph 8 mph 56.2% 0.00 in 185 W/m2
16:19 63.3 °F 49.1 °F 29.98 in West 5.2 mph 9 mph 58% 0.00 in 118 W/m2
16:24 62.9 °F 49.7 °F 29.98 in West 6.2 mph 9 mph 60.2% 0.00 in 125 W/m2
16:29 62.6 °F 50.9 °F 29.98 in West 6 mph 12 mph 63.4% 0.00 in 134 W/m2
16:34 61.9 °F 51.2 °F 29.98 in WNW 7.3 mph 13 mph 65.8% 0.00 in 127 W/m2
16:39 61.2 °F 50.7 °F 29.98 in WNW 4.8 mph 10 mph 66.2% 0.00 in 121 W/m2
16:44 61.1 °F 50.8 °F 29.98 in West 6.9 mph 10 mph 67% 0.00 in 120 W/m2
16:49 61 °F 51.3 °F 29.98 in WNW 3.4 mph 10 mph 68% 0.00 in 125 W/m2
16:54 61 °F 50.8 °F 29.98 in WNW 3.6 mph 10 mph 67.2% 0.00 in 111 W/m2
16:59 61 °F 50.5 °F 29.98 in WNW 4.3 mph 8 mph 66.2% 0.00 in 109 W/m2
17:04 61 °F 50.2 °F 29.98 in WNW 4.4 mph 8 mph 65.6% 0.00 in 114 W/m2
17:09 61 °F 49.6 °F 29.98 in West 5.7 mph 10 mph 64% 0.00 in 109 W/m2
17:14 60.8 °F 49.9 °F 29.97 in WNW 3.5 mph 8 mph 65.2% 0.00 in 102 W/m2
17:19 60.7 °F 50.5 °F 29.97 in WNW 2.4 mph 5 mph 66.8% 0.00 in 90 W/m2
17:24 60.6 °F 50.9 °F 29.97 in WNW 3.3 mph 6 mph 68% 0.00 in 70 W/m2
17:29 60.4 °F 50.7 °F 29.98 in WNW 4.8 mph 8 mph 68% 0.00 in 53 W/m2
17:34 60.3 °F 51 °F 29.98 in West 4 mph 8 mph 69% 0.00 in 33 W/m2
17:39 60.3 °F 51.2 °F 29.98 in WNW 3 mph 7 mph 69.8% 0.00 in 30 W/m2
17:44 60.3 °F 51.5 °F 29.97 in West 2.8 mph 6 mph 70.8% 0.00 in 56 W/m2
17:49 60.2 °F 51.5 °F 29.98 in WNW 4.1 mph 7 mph 71% 0.00 in 49 W/m2
17:54 60.1 °F 51.4 °F 29.98 in West 3.6 mph 7 mph 71% 0.00 in 69 W/m2
17:59 60.1 °F 51.4 °F 29.98 in WNW 2.5 mph 7 mph 71% 0.00 in 62 W/m2
18:04 60.1 °F 52 °F 29.98 in WNW 3.3 mph 5 mph 72% 0.00 in 60 W/m2
18:09 59.9 °F 51.8 °F 29.98 in West 3.7 mph 8 mph 72% 0.00 in 54 W/m2
18:14 59.6 °F 51.7 °F 29.98 in West 3.7 mph 6 mph 72.5% 0.00 in 47 W/m2
18:19 59.4 °F 51.6 °F 29.98 in West 3.8 mph 6 mph 73% 0.00 in 40 W/m2
18:24 59.1 °F 51.3 °F 29.98 in WNW 2.5 mph 6 mph 73% 0.00 in 26 W/m2
18:29 58.8 °F 51.3 °F 29.98 in WNW 0.8 mph 4 mph 73.6% 0.00 in 21 W/m2
18:34 58.8 °F 51.4 °F 29.98 in WNW 0.4 mph 3 mph 74% 0.00 in 16 W/m2
18:39 58.8 °F 51.4 °F 29.98 in WNW 0.4 mph 2 mph 74% 0.00 in 12 W/m2
18:44 58.8 °F 51.4 °F 29.98 in Calm   2 mph 74% 0.00 in 9 W/m2
18:49 58.6 °F 51.5 °F 29.98 in WNW 0.4 mph 3 mph 74.8% 0.00 in 5 W/m2
18:54 58.4 °F 51.3 °F 29.98 in WNW 1.2 mph 2 mph 75% 0.00 in 0 W/m2
18:59 58 °F 51 °F 29.98 in WNW 1 mph 3 mph 75% 0.00 in 0 W/m2
19:04 57.7 °F 50.7 °F 29.98 in WNW 1.6 mph 3 mph 75% 0.00 in 0 W/m2
19:09 57.5 °F 50.5 °F 29.98 in WNW 0.8 mph 3 mph 75% 0.00 in 0 W/m2
19:14 57.4 °F 50.4 °F 29.98 in WNW 0.6 mph 3 mph 75% 0.00 in 0 W/m2
19:19 57.3 °F 50.6 °F 29.98 in WNW 1.3 mph 3 mph 76% 0.00 in 0 W/m2
19:24 57 °F 50.4 °F 29.98 in WNW 1.6 mph 4 mph 76% 0.00 in 0 W/m2
19:29 56.8 °F 50.2 °F 29.98 in WNW 1.7 mph 4 mph 76% 0.00 in 0 W/m2
19:34 56.7 °F 50.1 °F 29.98 in Calm   2 mph 76% 0.00 in 0 W/m2
19:39 56.7 °F 50 °F 29.98 in WNW 1 mph 2 mph 76% 0.00 in 0 W/m2
19:44 56.5 °F 49.8 °F 29.98 in Calm   1 mph 76% 0.00 in 0 W/m2
19:49 56.5 °F 49.8 °F 29.98 in Calm     76.2% 0.00 in 0 W/m2
19:54 56.1 °F 49.7 °F 29.98 in WNW 0.8 mph 3 mph 76.4% 0.00 in 0 W/m2
19:59 56.1 °F 49.8 °F 29.98 in Calm     77% 0.00 in 0 W/m2
20:04 56 °F 49.7 °F 29.98 in Calm     77% 0.00 in 0 W/m2
20:09 55.9 °F 49.6 °F 29.98 in Calm     77% 0.00 in 0 W/m2
20:14 55.8 °F 49.7 °F 29.97 in WNW 0.8 mph 2 mph 77.6% 0.00 in 0 W/m2
20:19 55.6 °F 49.6 °F 29.98 in WNW 1.3 mph 3 mph 78% 0.00 in 0 W/m2
20:24 55.3 °F 49.6 °F 29.98 in WNW 0.6 mph 3 mph 78.8% 0.00 in 0 W/m2
20:29 55.2 °F 49.6 °F 29.98 in WNW 0.5 mph 3 mph 79% 0.00 in 0 W/m2
20:34 55 °F 49.8 °F 29.98 in WNW 0.4 mph 2 mph 80% 0.00 in 0 W/m2
20:39 54.9 °F 49.6 °F 29.98 in WNW 0.2 mph 1 mph 80% 0.00 in 0 W/m2
20:44 54.9 °F 49.8 °F 29.97 in Calm     80.6% 0.00 in 0 W/m2
20:49 54.9 °F 50 °F 29.97 in Calm     81% 0.00 in 0 W/m2
20:54 54.7 °F 49.8 °F 29.97 in WNW 0.4 mph 2 mph 81% 0.00 in 0 W/m2
20:59 54.7 °F 49.8 °F 29.97 in WNW 1.1 mph 3 mph 81% 0.00 in 0 W/m2
21:04 54.7 °F 49.8 °F 29.97 in WNW 0.6 mph 3 mph 81% 0.00 in 0 W/m2
21:09 54.7 °F 49.7 °F 29.97 in WNW 1.2 mph 4 mph 80.8% 0.00 in 0 W/m2
21:14 54.7 °F 49.5 °F 29.97 in WNW 0.4 mph 4 mph 80% 0.00 in 0 W/m2
21:19 54.6 °F 49.4 °F 29.97 in Calm     80% 0.00 in 0 W/m2
21:23 54.6 °F 49.4 °F 29.97 in Calm     80% 0.00 in 0 W/m2
21:29 54.7 °F 49.5 °F 29.97 in Calm     80% 0.00 in 0 W/m2
21:34 54.7 °F 49.6 °F 29.97 in Calm     80.2% 0.00 in 0 W/m2
21:39 54.7 °F 49.8 °F 29.97 in Calm     81% 0.00 in 0 W/m2
21:44 54.5 °F 49.7 °F 29.97 in Calm     81% 0.00 in 0 W/m2
21:49 54.2 °F 49.4 °F 29.97 in Calm     81% 0.00 in 0 W/m2
21:54 54 °F 49.2 °F 29.96 in Calm     81.2% 0.00 in 0 W/m2
21:59 53.7 °F 49.2 °F 29.96 in Calm   1 mph 82% 0.00 in 0 W/m2
22:04 53.3 °F 48.8 °F 29.96 in Calm     82% 0.00 in 0 W/m2
22:09 53.1 °F 48.9 °F 29.96 in Calm     83% 0.00 in 0 W/m2
22:14 52.9 °F 48.7 °F 29.96 in Calm     83% 0.00 in 0 W/m2
22:19 52.3 °F 48.2 °F 29.96 in WNW 0.4 mph 2 mph 83% 0.00 in 0 W/m2
22:24 52 °F 48.2 °F 29.96 in Calm   1 mph 84% 0.00 in 0 W/m2
22:29 51.7 °F 47.9 °F 29.96 in Calm     84% 0.00 in 0 W/m2
22:34 51.5 °F 48.1 °F 29.96 in Calm     85% 0.00 in 0 W/m2
22:39 51.2 °F 47.8 °F 29.95 in Calm     85% 0.00 in 0 W/m2
22:44 51 °F 47.6 °F 29.95 in Calm     85% 0.00 in 0 W/m2
22:49 50.9 °F 47.7 °F 29.95 in Calm     85.8% 0.00 in 0 W/m2
22:54 50.7 °F 47.5 °F 29.95 in Calm     86% 0.00 in 0 W/m2
22:59 50.5 °F 47.5 °F 29.95 in Calm     86% 0.00 in 0 W/m2
23:04 50.3 °F 47.2 °F 29.95 in Calm     86% 0.00 in 0 W/m2
23:09 50.1 °F 47 °F 29.95 in Calm     86% 0.00 in 0 W/m2
23:14 50 °F 47.1 °F 29.95 in Calm     87% 0.00 in 0 W/m2
23:19 50 °F 47.1 °F 29.95 in Calm     87% 0.00 in 0 W/m2
23:24 49.8 °F 46.9 °F 29.95 in Calm     87% 0.00 in 0 W/m2
23:29 49.8 °F 46.9 °F 29.95 in Calm     87% 0.00 in 0 W/m2
23:34 50 °F 47.4 °F 29.95 in Calm     87.8% 0.00 in 0 W/m2
23:39 50.2 °F 47.7 °F 29.94 in Calm     88% 0.00 in 0 W/m2
23:44 50.2 °F 47.7 °F 29.94 in Calm     88% 0.00 in 0 W/m2
23:49 50.2 °F 47.7 °F 29.94 in Calm     88% 0.00 in 0 W/m2
23:54 50.2 °F 47.7 °F 29.94 in Calm     88% 0.00 in 0 W/m2
23:59 50.2 °F 47.7 °F 29.94 in Calm     88% 0.00 in 0 W/m2
Bath Spa Weather
Compliments of Weather Underground - 2 mb